createdAt,value
2019-04-21T00:00:00.548Z,0
2019-04-21T00:00:29.793Z,0
2019-04-21T00:01:03.828Z,0
2019-04-21T00:01:30.542Z,0
2019-04-21T00:01:59.762Z,0
2019-04-21T00:02:32.813Z,0
2019-04-21T00:02:59.503Z,0
2019-04-21T00:03:35.429Z,0
2019-04-21T00:04:11.178Z,0
2019-04-21T00:04:42.580Z,0
2019-04-21T00:05:24.347Z,0
2019-04-21T00:05:50.925Z,0
2019-04-21T00:06:21.818Z,0
2019-04-21T00:06:55.011Z,0
2019-04-21T00:07:24.846Z,0
2019-04-21T00:07:56.854Z,0
2019-04-21T00:08:30.427Z,0
2019-04-21T00:09:02.156Z,0
2019-04-21T00:09:32.438Z,0
2019-04-21T00:09:58.018Z,0
2019-04-21T00:10:32.871Z,0
2019-04-21T00:11:02.558Z,0
2019-04-21T00:11:34.115Z,0
2019-04-21T00:12:01.307Z,0
2019-04-21T00:12:34.273Z,0
2019-04-21T00:13:01.681Z,0
2019-04-21T00:13:26.436Z,0
2019-04-21T00:14:00.846Z,0
2019-04-21T00:14:30.137Z,0
2019-04-21T00:14:57.726Z,0
2019-04-21T00:15:27.535Z,0
2019-04-21T00:15:54.821Z,0
2019-04-21T00:16:32.013Z,0
2019-04-21T00:16:57.924Z,0
2019-04-21T00:17:23.043Z,0
2019-04-21T00:17:54.711Z,0
2019-04-21T00:18:21.630Z,0
2019-04-21T00:18:59.814Z,0
2019-04-21T00:19:24.594Z,0
2019-04-21T00:19:50.132Z,0
2019-04-21T00:20:28.795Z,0
2019-04-21T00:20:55.112Z,0
2019-04-21T00:21:29.034Z,0
2019-04-21T00:21:58.597Z,0
2019-04-21T00:22:33.829Z,0
2019-04-21T00:23:09.938Z,0
2019-04-21T00:23:40.993Z,0
2019-04-21T00:24:08.477Z,0
2019-04-21T00:24:41.125Z,0
2019-04-21T00:25:11.569Z,0
2019-04-21T00:25:38.240Z,0
2019-04-21T00:26:07.443Z,0
2019-04-21T00:26:43.578Z,0
2019-04-21T00:27:15.392Z,0
2019-04-21T00:27:46.295Z,0
2019-04-21T00:28:13.834Z,0
2019-04-21T00:28:48.846Z,0
2019-04-21T00:29:25.510Z,0
2019-04-21T00:29:47.486Z,0
2019-04-21T00:30:21.201Z,0
2019-04-21T00:30:50.332Z,0
2019-04-21T00:31:19.155Z,0
2019-04-21T00:31:51.058Z,0
2019-04-21T00:32:17.499Z,0
2019-04-21T00:32:48.599Z,0
2019-04-21T00:33:13.746Z,0
2019-04-21T00:33:39.796Z,0
2019-04-21T00:34:06.701Z,0
2019-04-21T00:34:36.313Z,0
2019-04-21T00:35:11.614Z,0
2019-04-21T00:35:43.848Z,0
2019-04-21T00:36:14.762Z,0
2019-04-21T00:36:46.051Z,0
2019-04-21T00:37:17.869Z,0
2019-04-21T00:38:00.145Z,0
2019-04-21T00:38:31.793Z,0
2019-04-21T00:39:14.182Z,0
2019-04-21T00:40:03.503Z,0
2019-04-21T00:40:34.311Z,0
2019-04-21T00:41:05.291Z,0
2019-04-21T00:41:36.313Z,0
2019-04-21T00:42:05.034Z,0
2019-04-21T00:42:34.081Z,0
2019-04-21T00:43:03.355Z,0
2019-04-21T00:43:32.756Z,0
2019-04-21T00:44:00.523Z,0
2019-04-21T00:44:29.127Z,0
2019-04-21T00:45:01.661Z,0
2019-04-21T00:45:33.577Z,0
2019-04-21T00:45:59.661Z,0
2019-04-21T00:46:34.655Z,0
2019-04-21T00:47:01.686Z,0
2019-04-21T00:47:38.512Z,0
2019-04-21T00:48:16.391Z,0
2019-04-21T00:48:40.730Z,0
2019-04-21T00:49:05.440Z,0
2019-04-21T00:49:35.352Z,0
2019-04-21T00:50:10.550Z,0
2019-04-21T00:51:03.194Z,0
2019-04-21T00:51:33.013Z,0
2019-04-21T00:51:53.155Z,0
2019-04-21T00:52:27.998Z,0
2019-04-21T00:52:56.128Z,0
2019-04-21T00:53:28.538Z,0
2019-04-21T00:53:57.733Z,0
2019-04-21T00:54:24.394Z,0
2019-04-21T00:54:56.786Z,0
2019-04-21T00:55:55.125Z,0
2019-04-21T00:56:27.289Z,0
2019-04-21T00:57:02.467Z,0
2019-04-21T00:57:32.214Z,0
2019-04-21T00:58:01.841Z,0
2019-04-21T00:58:59.115Z,0
2019-04-21T00:59:31.445Z,0
2019-04-21T00:59:58.970Z,0
2019-04-21T01:00:32.183Z,0
2019-04-21T01:01:01.398Z,0
2019-04-21T01:01:31.026Z,0
2019-04-21T01:01:59.565Z,0
2019-04-21T01:02:37.996Z,0
2019-04-21T01:03:00.765Z,0
2019-04-21T01:03:31.219Z,0
2019-04-21T01:04:02.043Z,0
2019-04-21T01:04:36.695Z,0
2019-04-21T01:05:04.523Z,0
2019-04-21T01:05:35.062Z,0
2019-04-21T01:06:02.987Z,0
2019-04-21T01:06:35.009Z,0
2019-04-21T01:07:07.033Z,0
2019-04-21T01:07:35.669Z,0
2019-04-21T01:08:04.532Z,0
2019-04-21T01:08:30.948Z,0
2019-04-21T01:09:02.503Z,0
2019-04-21T01:09:31.551Z,0
2019-04-21T01:09:58.182Z,0
2019-04-21T01:10:28.339Z,0
2019-04-21T01:10:58.692Z,0
2019-04-21T01:11:36.557Z,0
2019-04-21T01:12:06.745Z,0
2019-04-21T01:12:37.139Z,0
2019-04-21T01:13:15.765Z,0
2019-04-21T01:13:45.239Z,0
2019-04-21T01:14:11.591Z,0
2019-04-21T01:14:48.269Z,0
2019-04-21T01:15:18.154Z,0
2019-04-21T01:15:48.557Z,0
2019-04-21T01:16:20.142Z,0
2019-04-21T01:16:51.202Z,0
2019-04-21T01:17:17.739Z,0
2019-04-21T01:17:45.852Z,0
2019-04-21T01:18:20.336Z,0
2019-04-21T01:18:49.112Z,0
2019-04-21T01:19:15.593Z,0
2019-04-21T01:19:43.718Z,0
2019-04-21T01:20:12.798Z,0
2019-04-21T01:20:27.231Z,0
2019-04-21T01:20:53.390Z,0
2019-04-21T01:21:21.532Z,0
2019-04-21T01:21:47.685Z,0
2019-04-21T01:22:13.848Z,0
2019-04-21T01:22:40.084Z,0
2019-04-21T01:23:08.393Z,0
2019-04-21T01:23:38.112Z,0
2019-04-21T01:24:13.238Z,0
2019-04-21T01:24:41.699Z,0
2019-04-21T01:25:14.165Z,0
2019-04-21T01:25:44.801Z,0
2019-04-21T01:26:17.630Z,0
2019-04-21T01:26:46.929Z,0
2019-04-21T01:27:18.347Z,0
2019-04-21T01:27:53.559Z,0
2019-04-21T01:28:23.984Z,0
2019-04-21T01:28:55.547Z,0
2019-04-21T01:29:25.283Z,0
2019-04-21T01:29:59.578Z,0
2019-04-21T01:30:28.218Z,0
2019-04-21T01:31:02.212Z,0
2019-04-21T01:31:28.055Z,0
2019-04-21T01:32:10.087Z,0
2019-04-21T01:32:34.171Z,0
2019-04-21T01:33:07.046Z,0
2019-04-21T01:33:37.830Z,0
2019-04-21T01:34:08.171Z,0
2019-04-21T01:34:38.784Z,0
2019-04-21T01:35:08.227Z,0
2019-04-21T01:35:39.230Z,0
2019-04-21T01:36:08.016Z,0
2019-04-21T01:36:38.288Z,0
2019-04-21T01:37:03.702Z,0
2019-04-21T01:37:49.063Z,0
2019-04-21T01:38:13.689Z,0
2019-04-21T01:38:47.975Z,0
2019-04-21T01:39:46.792Z,0
2019-04-21T01:40:22.497Z,0
2019-04-21T01:40:44.511Z,0
2019-04-21T01:41:19.689Z,0
2019-04-21T01:41:50.627Z,0
2019-04-21T01:42:15.579Z,0
2019-04-21T01:42:50.629Z,0
2019-04-21T01:43:18.475Z,0
2019-04-21T01:43:48.670Z,0
2019-04-21T01:44:24.714Z,0
2019-04-21T01:44:52.119Z,0
2019-04-21T01:45:21.045Z,0
2019-04-21T01:45:48.531Z,0
2019-04-21T01:46:19.035Z,0
2019-04-21T01:46:48.558Z,0
2019-04-21T01:47:15.697Z,0
2019-04-21T01:47:50.503Z,0
2019-04-21T01:48:19.385Z,0
2019-04-21T01:48:49.031Z,0
2019-04-21T01:49:15.695Z,0
2019-04-21T01:49:47.100Z,0
2019-04-21T01:50:24.216Z,0
2019-04-21T01:50:55.119Z,0
2019-04-21T01:51:21.976Z,0
2019-04-21T01:52:08.632Z,0
2019-04-21T01:52:38.098Z,0
2019-04-21T01:53:01.801Z,0
2019-04-21T01:53:30.451Z,0
2019-04-21T01:54:03.137Z,0
2019-04-21T01:54:34.953Z,0
2019-04-21T01:55:05.849Z,0
2019-04-21T01:55:35.409Z,0
2019-04-21T01:56:00.187Z,0
2019-04-21T01:56:33.719Z,0
2019-04-21T01:57:01.484Z,0
2019-04-21T01:57:33.954Z,0
2019-04-21T01:58:01.251Z,0
2019-04-21T01:58:28.683Z,0
2019-04-21T01:58:56.083Z,0
2019-04-21T01:59:30.313Z,0
2019-04-21T01:59:56.917Z,0
2019-04-21T02:00:32.504Z,0
2019-04-21T02:01:04.365Z,0
2019-04-21T02:01:38.415Z,0
2019-04-21T02:02:10.252Z,0
2019-04-21T02:02:43.121Z,0
2019-04-21T02:03:20.853Z,0
2019-04-21T02:04:04.096Z,0
2019-04-21T02:05:16.794Z,0
2019-04-21T02:05:43.767Z,0
2019-04-21T02:06:16.958Z,0
2019-04-21T02:06:43.946Z,0
2019-04-21T02:07:14.465Z,0
2019-04-21T02:07:44.033Z,0
2019-04-21T02:08:14.627Z,0
2019-04-21T02:08:41.288Z,0
2019-04-21T02:09:09.554Z,0
2019-04-21T02:09:41.778Z,0
2019-04-21T02:10:17.458Z,0
2019-04-21T02:10:45.943Z,0
2019-04-21T02:11:16.729Z,0
2019-04-21T02:11:50.063Z,0
2019-04-21T02:12:18.646Z,0
2019-04-21T02:12:50.565Z,0
2019-04-21T02:13:11.595Z,0
2019-04-21T02:13:52.841Z,0
2019-04-21T02:14:14.551Z,0
2019-04-21T02:14:50.147Z,0
2019-04-21T02:15:48.604Z,0
2019-04-21T02:16:22.585Z,0
2019-04-21T02:16:51.877Z,0
2019-04-21T02:17:21.588Z,0
2019-04-21T02:17:46.812Z,0
2019-04-21T02:18:21.881Z,0
2019-04-21T02:18:49.252Z,0
2019-04-21T02:19:28.327Z,0
2019-04-21T02:19:49.008Z,0
2019-04-21T02:20:17.801Z,0
2019-04-21T02:20:44.232Z,0
2019-04-21T02:21:21.368Z,0
2019-04-21T02:21:51.269Z,0
2019-04-21T02:22:34.916Z,0
2019-04-21T02:23:17.491Z,0
2019-04-21T02:23:37.653Z,0
2019-04-21T02:24:11.249Z,0
2019-04-21T02:24:41.853Z,0
2019-04-21T02:25:08.107Z,0
2019-04-21T02:25:38.236Z,0
2019-04-21T02:26:09.125Z,0
2019-04-21T02:26:39.648Z,0
2019-04-21T02:27:12.570Z,0
2019-04-21T02:27:42.522Z,0
2019-04-21T02:28:19.146Z,0
2019-04-21T02:28:49.662Z,0
2019-04-21T02:29:14.171Z,0
2019-04-21T02:29:46.942Z,0
2019-04-21T02:30:18.090Z,0
2019-04-21T02:30:54.118Z,0
2019-04-21T02:31:26.327Z,0
2019-04-21T02:32:24.099Z,0
2019-04-21T02:32:58.554Z,0
2019-04-21T02:33:58.095Z,0
2019-04-21T02:34:31.977Z,0
2019-04-21T02:35:38.100Z,0
2019-04-21T02:36:22.466Z,0
2019-04-21T02:37:36.471Z,0
2019-04-21T02:38:07.534Z,0
2019-04-21T02:38:44.404Z,0
2019-04-21T02:39:13.120Z,0
2019-04-21T02:39:48.691Z,0
2019-04-21T02:40:10.976Z,0
2019-04-21T02:40:44.814Z,0
2019-04-21T02:41:12.576Z,0
2019-04-21T02:41:46.840Z,0
2019-04-21T02:42:18.029Z,0
2019-04-21T02:42:55.451Z,0
2019-04-21T02:43:18.427Z,0
2019-04-21T02:43:51.881Z,0
2019-04-21T02:44:36.965Z,0
2019-04-21T02:45:22.673Z,0
2019-04-21T02:45:55.705Z,0
2019-04-21T02:46:46.170Z,0
2019-04-21T02:47:26.750Z,0
2019-04-21T02:47:36.516Z,0
2019-04-21T02:48:27.619Z,0
2019-04-21T02:49:44.700Z,0
2019-04-21T02:50:17.365Z,0
2019-04-21T02:50:31.345Z,0
2019-04-21T02:51:08.126Z,0
2019-04-21T02:51:33.238Z,0
2019-04-21T02:52:11.318Z,0
2019-04-21T02:53:09.305Z,0
2019-04-21T02:53:53.295Z,0
2019-04-21T02:55:05.739Z,0
2019-04-21T02:55:43.369Z,0
2019-04-21T02:56:16.550Z,0
2019-04-21T02:57:00.683Z,0
2019-04-21T02:57:15.328Z,0
2019-04-21T02:57:49.249Z,0
2019-04-21T02:58:50.921Z,0
2019-04-21T03:00:23.518Z,0
2019-04-21T03:00:23.543Z,0
2019-04-21T03:00:54.656Z,0
2019-04-21T03:01:30.914Z,0
2019-04-21T03:01:55.673Z,0
2019-04-21T03:02:54.005Z,0
2019-04-21T03:03:27.415Z,0
2019-04-21T03:03:58.465Z,0
2019-04-21T03:04:34.094Z,0
2019-04-21T03:05:01.436Z,0
2019-04-21T03:05:44.810Z,0
2019-04-21T03:05:58.066Z,0
2019-04-21T03:06:28.712Z,0
2019-04-21T03:07:08.968Z,0
2019-04-21T03:07:40.542Z,0
2019-04-21T03:08:02.654Z,0
2019-04-21T03:08:42.437Z,0
2019-04-21T03:09:08.529Z,0
2019-04-21T03:10:10.521Z,0
2019-04-21T03:11:08.570Z,0
2019-04-21T03:11:34.179Z,0
2019-04-21T03:12:10.663Z,0
2019-04-21T03:12:37.431Z,0
2019-04-21T03:13:46.367Z,0
2019-04-21T03:14:15.710Z,0
2019-04-21T03:14:55.401Z,0
2019-04-21T03:15:46.865Z,0
2019-04-21T03:16:22.164Z,0
2019-04-21T03:16:39.709Z,0
2019-04-21T03:17:56.681Z,0
2019-04-21T03:18:23.979Z,0
2019-04-21T03:18:56.337Z,0
2019-04-21T03:19:35.657Z,0
2019-04-21T03:19:57.909Z,0
2019-04-21T03:20:23.192Z,0
2019-04-21T03:21:28.196Z,0
2019-04-21T03:22:04.853Z,0
2019-04-21T03:22:23.813Z,0
2019-04-21T03:23:07.492Z,0
2019-04-21T03:23:35.994Z,0
2019-04-21T03:23:57.156Z,0
2019-04-21T03:24:53.306Z,0
2019-04-21T03:25:40.763Z,0
2019-04-21T03:26:09.969Z,0
2019-04-21T03:26:47.852Z,0
2019-04-21T03:28:35.162Z,0
2019-04-21T03:29:11.582Z,0
2019-04-21T03:29:44.279Z,0
2019-04-21T03:31:05.517Z,0
2019-04-21T03:33:58.108Z,0
2019-04-21T03:34:38.068Z,0
2019-04-21T03:37:15.558Z,0
2019-04-21T03:37:36.296Z,0
2019-04-21T03:38:02.705Z,0
2019-04-21T03:38:52.904Z,0
2019-04-21T03:39:36.365Z,0
2019-04-21T03:39:59.029Z,0
2019-04-21T03:41:03.836Z,0
2019-04-21T03:41:37.534Z,0
2019-04-21T03:42:16.485Z,0
2019-04-21T03:42:47.217Z,0
2019-04-21T03:43:04.059Z,4
2019-04-21T03:43:34.352Z,4
2019-04-21T03:44:05.872Z,4
2019-04-21T03:44:36.808Z,4
2019-04-21T03:45:11.979Z,4
2019-04-21T03:45:42.058Z,0
2019-04-21T03:46:05.649Z,0
2019-04-21T03:46:55.353Z,0
2019-04-21T03:47:14.435Z,4
2019-04-21T03:48:16.595Z,4
2019-04-21T03:49:02.012Z,0
2019-04-21T03:49:18.948Z,4
2019-04-21T03:50:19.963Z,8
2019-04-21T03:51:02.505Z,4
2019-04-21T03:51:20.079Z,4
2019-04-21T03:51:54.768Z,8
2019-04-21T03:52:29.385Z,4
2019-04-21T03:52:53.035Z,8
2019-04-21T03:53:23.878Z,8
2019-04-21T03:53:53.264Z,8
2019-04-21T03:54:24.945Z,8
2019-04-21T03:54:53.021Z,8
2019-04-21T03:56:43.644Z,12
2019-04-21T03:57:08.559Z,12
2019-04-21T03:57:45.710Z,16
2019-04-21T03:58:46.197Z,20
2019-04-21T03:59:24.011Z,20
2019-04-21T04:00:05.957Z,24
2019-04-21T04:01:03.800Z,28
2019-04-21T04:01:40.234Z,28
2019-04-21T04:02:05.552Z,32
2019-04-21T04:02:41.144Z,32
2019-04-21T04:03:23.339Z,36
2019-04-21T04:04:43.862Z,44
2019-04-21T04:05:19.504Z,52
2019-04-21T04:05:54.833Z,52
2019-04-21T04:07:20.771Z,68
2019-04-21T04:08:20.252Z,80
2019-04-21T04:08:57.300Z,84
2019-04-21T04:10:31.041Z,100
2019-04-21T04:11:28.939Z,116
2019-04-21T04:11:50.217Z,124
2019-04-21T04:12:18.618Z,132
2019-04-21T04:12:56.836Z,140
2019-04-21T04:13:26.241Z,152
2019-04-21T04:14:30.545Z,172
2019-04-21T04:14:49.899Z,180
2019-04-21T04:15:30.637Z,188
2019-04-21T04:16:05.573Z,200
2019-04-21T04:16:35.190Z,212
2019-04-21T04:17:04.400Z,224
2019-04-21T04:17:39.901Z,236
2019-04-21T04:17:53.747Z,248
2019-04-21T04:19:14.399Z,276
2019-04-21T04:20:03.476Z,304
2019-04-21T04:20:34.459Z,320
2019-04-21T04:21:12.079Z,336
2019-04-21T04:22:12.554Z,368
2019-04-21T04:23:07.614Z,404
2019-04-21T04:24:21.391Z,440
2019-04-21T04:25:33.254Z,480
2019-04-21T04:27:04.866Z,540
2019-04-21T04:27:59.215Z,584
2019-04-21T04:28:27.338Z,608
2019-04-21T04:28:54.011Z,628
2019-04-21T04:29:58.806Z,676
2019-04-21T04:31:04.777Z,724
2019-04-21T04:32:14.282Z,776
2019-04-21T04:32:28.283Z,804
2019-04-21T04:32:56.127Z,828
2019-04-21T04:33:36.966Z,852
2019-04-21T04:34:04.012Z,880
2019-04-21T04:35:41.941Z,964
2019-04-21T04:36:10.392Z,992
2019-04-21T04:37:12.089Z,1052
2019-04-21T04:37:36.034Z,1076
2019-04-21T04:38:10.677Z,1112
2019-04-21T04:39:25.356Z,1172
2019-04-21T04:39:48.134Z,1204
2019-04-21T04:40:13.176Z,1232
2019-04-21T04:40:46.705Z,1264
2019-04-21T04:41:32.041Z,1296
2019-04-21T04:41:52.476Z,1332
2019-04-21T04:42:21.111Z,1364
2019-04-21T04:43:04.952Z,1396
2019-04-21T04:43:18.479Z,1428
2019-04-21T04:43:54.238Z,1464
2019-04-21T04:44:22.510Z,1500
2019-04-21T04:45:03.885Z,1532
2019-04-21T04:46:26.180Z,1640
2019-04-21T04:47:22.572Z,1708
2019-04-21T04:47:58.119Z,1748
2019-04-21T04:48:27.612Z,1784
2019-04-21T04:49:01.515Z,1820
2019-04-21T04:50:38.941Z,1932
2019-04-21T04:51:01.104Z,1968
2019-04-21T04:51:43.618Z,2004
2019-04-21T04:52:50.980Z,2076
2019-04-21T04:53:11.313Z,2116
2019-04-21T04:53:46.789Z,2152
2019-04-21T04:54:01.466Z,2192
2019-04-21T04:55:06.240Z,2264
2019-04-21T04:55:54.540Z,2304
2019-04-21T04:56:10.283Z,2340
2019-04-21T04:56:46.945Z,2380
2019-04-21T04:57:21.470Z,2416
2019-04-21T04:57:52.686Z,2456
2019-04-21T04:59:47.279Z,2608
2019-04-21T05:00:25.513Z,2644
2019-04-21T05:01:50.945Z,2716
2019-04-21T05:01:59.340Z,2756
2019-04-21T05:02:55.768Z,2832
2019-04-21T05:03:34.429Z,2868
2019-04-21T05:03:56.415Z,2908
2019-04-21T05:04:35.155Z,2944
2019-04-21T05:05:04.664Z,2980
2019-04-21T05:05:26.208Z,3016
2019-04-21T05:06:09.799Z,3056
2019-04-21T05:08:05.316Z,3204
2019-04-21T05:08:52.191Z,3244
2019-04-21T05:09:20.903Z,3280
2019-04-21T05:09:38.933Z,3316
2019-04-21T05:10:26.885Z,3352
2019-04-21T05:10:47.123Z,3388
2019-04-21T05:11:18.139Z,3424
2019-04-21T05:11:59.621Z,3496
2019-04-21T05:12:35.525Z,3532
2019-04-21T05:13:05.839Z,3568
2019-04-21T05:13:43.175Z,3604
2019-04-21T05:14:45.966Z,3680
2019-04-21T05:15:11.074Z,3712
2019-04-21T05:15:41.377Z,3748
2019-04-21T05:16:23.793Z,3784
2019-04-21T05:17:28.434Z,3856
2019-04-21T05:18:24.097Z,3924
2019-04-21T05:18:52.333Z,3960
2019-04-21T05:19:19.824Z,3992
2019-04-21T05:20:01.481Z,4024
2019-04-21T05:20:15.445Z,4060
2019-04-21T05:20:52.000Z,4096
2019-04-21T05:21:29.584Z,4128
2019-04-21T05:21:43.730Z,4168
2019-04-21T05:22:47.060Z,4236
2019-04-21T05:23:11.565Z,4268
2019-04-21T05:23:42.553Z,4300
2019-04-21T05:24:11.696Z,4336
2019-04-21T05:24:37.363Z,4372
2019-04-21T05:25:08.190Z,4412
2019-04-21T05:25:37.358Z,4444
2019-04-21T05:26:06.266Z,4476
2019-04-21T05:26:43.103Z,4512
2019-04-21T05:27:05.961Z,4552
2019-04-21T05:27:37.841Z,4592
2019-04-21T05:28:07.503Z,4620
2019-04-21T05:28:40.526Z,4656
2019-04-21T05:29:08.856Z,4688
2019-04-21T05:29:53.347Z,4724
2019-04-21T05:30:21.809Z,4760
2019-04-21T05:30:54.965Z,4796
2019-04-21T05:31:24.852Z,4836
2019-04-21T05:32:00.223Z,4872
2019-04-21T05:32:24.174Z,4908
2019-04-21T05:32:59.744Z,4944
2019-04-21T05:33:26.805Z,4980
2019-04-21T05:33:52.855Z,5012
2019-04-21T05:34:26.743Z,5052
2019-04-21T05:34:55.242Z,5084
2019-04-21T05:35:26.216Z,5120
2019-04-21T05:35:55.032Z,5152
2019-04-21T05:36:27.602Z,5184
2019-04-21T05:36:56.400Z,5216
2019-04-21T05:37:28.366Z,5252
2019-04-21T05:37:59.729Z,5276
2019-04-21T05:38:27.053Z,5312
2019-04-21T05:38:58.288Z,5344
2019-04-21T05:39:22.982Z,5372
2019-04-21T05:39:55.698Z,5404
2019-04-21T05:40:26.244Z,5432
2019-04-21T05:40:55.000Z,5464
2019-04-21T05:41:25.381Z,5488
2019-04-21T05:41:53.628Z,5516
2019-04-21T05:42:28.266Z,5544
2019-04-21T05:43:00.909Z,5576
2019-04-21T05:43:38.601Z,5600
2019-04-21T05:44:03.578Z,5632
2019-04-21T05:44:41.157Z,5660
2019-04-21T05:45:15.685Z,5688
2019-04-21T05:45:40.397Z,5728
2019-04-21T05:46:12.273Z,5760
2019-04-21T05:46:47.702Z,5796
2019-04-21T05:47:20.048Z,5828
2019-04-21T05:47:46.022Z,5856
2019-04-21T05:48:22.696Z,5884
2019-04-21T05:48:45.344Z,5916
2019-04-21T05:49:13.751Z,5944
2019-04-21T05:49:44.987Z,5976
2019-04-21T05:50:11.240Z,6012
2019-04-21T05:50:43.898Z,6044
2019-04-21T05:51:12.851Z,6076
2019-04-21T05:51:43.862Z,6104
2019-04-21T05:52:14.242Z,6136
2019-04-21T05:52:44.538Z,6176
2019-04-21T05:53:23.979Z,6208
2019-04-21T05:53:55.446Z,6240
2019-04-21T05:54:29.200Z,6276
2019-04-21T05:54:54.420Z,6312
2019-04-21T05:55:24.271Z,6344
2019-04-21T05:56:22.037Z,6416
2019-04-21T05:56:48.346Z,6452
2019-04-21T05:57:20.137Z,6480
2019-04-21T05:57:45.589Z,6516
2019-04-21T05:58:26.986Z,6548
2019-04-21T05:58:55.220Z,6580
2019-04-21T05:59:25.874Z,6612
2019-04-21T05:59:52.991Z,6644
2019-04-21T06:00:38.864Z,6676
2019-04-21T06:01:32.699Z,6748
2019-04-21T06:02:05.690Z,6784
2019-04-21T06:02:28.703Z,6816
2019-04-21T06:03:03.547Z,6844
2019-04-21T06:03:36.583Z,6872
2019-04-21T06:04:03.315Z,6904
2019-04-21T06:04:46.694Z,6932
2019-04-21T06:05:13.439Z,6968
2019-04-21T06:06:13.361Z,7032
2019-04-21T06:06:39.033Z,7060
2019-04-21T06:07:11.870Z,7088
2019-04-21T06:07:33.231Z,7124
2019-04-21T06:08:06.840Z,7144
2019-04-21T06:08:35.629Z,7168
2019-04-21T06:09:07.156Z,7188
2019-04-21T06:09:43.755Z,7220
2019-04-21T06:10:04.328Z,7252
2019-04-21T06:10:41.727Z,7276
2019-04-21T06:11:12.758Z,7308
2019-04-21T06:11:42.078Z,7332
2019-04-21T06:12:12.749Z,7364
2019-04-21T06:12:48.658Z,7396
2019-04-21T06:13:18.528Z,7428
2019-04-21T06:13:47.921Z,7464
2019-04-21T06:14:13.797Z,7496
2019-04-21T06:14:48.114Z,7536
2019-04-21T06:15:13.393Z,7580
2019-04-21T06:15:49.853Z,7604
2019-04-21T06:16:13.658Z,7624
2019-04-21T06:16:47.791Z,7660
2019-04-21T06:17:23.503Z,7700
2019-04-21T06:17:48.609Z,7732
2019-04-21T06:18:26.898Z,7756
2019-04-21T06:18:51.830Z,7800
2019-04-21T06:19:30.497Z,7840
2019-04-21T06:19:55.571Z,7868
2019-04-21T06:20:26.894Z,7908
2019-04-21T06:20:54.117Z,7948
2019-04-21T06:21:26.150Z,7968
2019-04-21T06:21:50.682Z,8004
2019-04-21T06:22:18.695Z,8052
2019-04-21T06:22:56.208Z,8092
2019-04-21T06:23:23.633Z,8124
2019-04-21T06:23:49.448Z,8156
2019-04-21T06:24:20.126Z,8184
2019-04-21T06:25:20.567Z,8236
2019-04-21T06:26:17.736Z,8316
2019-04-21T06:26:49.874Z,8352
2019-04-21T06:27:06.717Z,8388
2019-04-21T06:28:03.388Z,8440
2019-04-21T06:28:39.892Z,8488
2019-04-21T06:29:02.603Z,8528
2019-04-21T06:29:35.990Z,8552
2019-04-21T06:30:03.091Z,8592
2019-04-21T06:30:38.891Z,8640
2019-04-21T06:32:38.027Z,8748
2019-04-21T06:32:48.933Z,8756
2019-04-21T06:33:15.173Z,8816
2019-04-21T06:33:44.272Z,8876
2019-04-21T06:34:16.171Z,8912
2019-04-21T06:35:19.312Z,8984
2019-04-21T06:35:58.589Z,9020
2019-04-21T06:37:39.536Z,9192
2019-04-21T06:37:48.944Z,9236
2019-04-21T06:38:32.588Z,9280
2019-04-21T06:39:22.486Z,9384
2019-04-21T06:40:07.419Z,9440
2019-04-21T06:40:27.570Z,9492
2019-04-21T06:40:55.615Z,9568
2019-04-21T06:41:58.289Z,9684
2019-04-21T06:42:25.330Z,9748
2019-04-21T06:43:10.756Z,9800
2019-04-21T06:43:32.834Z,9868
2019-04-21T06:44:01.035Z,9928
2019-04-21T06:44:31.849Z,10004
2019-04-21T06:45:18.389Z,9764
2019-04-21T06:45:39.636Z,9816
2019-04-21T06:46:08.532Z,9864
2019-04-21T06:47:05.797Z,10012
2019-04-21T06:47:41.926Z,10088
2019-04-21T06:48:10.776Z,10172
2019-04-21T06:48:40.355Z,10244
2019-04-21T06:49:06.537Z,10320
2019-04-21T06:49:36.724Z,10412
2019-04-21T06:50:07.353Z,10524
2019-04-21T06:50:45.587Z,10632
2019-04-21T06:51:14.849Z,10744
2019-04-21T06:52:23.312Z,11008
2019-04-21T06:53:02.370Z,11128
2019-04-21T06:53:20.306Z,11292
2019-04-21T06:53:52.076Z,11468
2019-04-21T06:54:14.115Z,11684
2019-04-21T06:54:46.688Z,12404
2019-04-21T06:55:19.738Z,20832
2019-04-21T06:55:51.456Z,35296
2019-04-21T06:56:21.617Z,49760
2019-04-21T06:56:59.933Z,60096
2019-04-21T06:57:21.324Z,61760
2019-04-21T06:57:51.329Z,61888
2019-04-21T06:58:17.922Z,62816
2019-04-21T06:58:50.088Z,63040
2019-04-21T06:59:20.629Z,63872
2019-04-21T06:59:49.488Z,64512
2019-04-21T07:00:24.570Z,64896
2019-04-21T07:00:53.397Z,64256
2019-04-21T07:01:30.642Z,62176
2019-04-21T07:01:56.255Z,61024
2019-04-21T07:02:42.107Z,60096
2019-04-21T07:03:07.951Z,59744
2019-04-21T07:03:34.435Z,60032
2019-04-21T07:04:49.925Z,61760
2019-04-21T07:05:07.211Z,62208
2019-04-21T07:05:33.351Z,63232
2019-04-21T07:06:07.661Z,63040
2019-04-21T07:06:42.311Z,62368
2019-04-21T07:07:04.413Z,63232
2019-04-21T07:07:34.954Z,64096
2019-04-21T07:08:21.499Z,64704
2019-04-21T07:08:44.163Z,64672
2019-04-21T07:09:20.005Z,65408
2019-04-21T07:09:42.546Z,66592
2019-04-21T07:10:13.949Z,67456
2019-04-21T07:10:42.857Z,65472
2019-04-21T07:11:08.162Z,64736
2019-04-21T07:11:42.021Z,65280
2019-04-21T07:12:11.560Z,66016
2019-04-21T07:12:44.700Z,67392
2019-04-21T07:13:13.879Z,68224
2019-04-21T07:13:43.829Z,67136
2019-04-21T07:14:52.506Z,68000
2019-04-21T07:15:16.375Z,69024
2019-04-21T07:15:49.772Z,69664
2019-04-21T07:16:24.972Z,69280
2019-04-21T07:16:56.115Z,66976
2019-04-21T07:17:57.623Z,68864
2019-04-21T07:18:27.098Z,70944
2019-04-21T07:19:05.520Z,72128
2019-04-21T07:19:59.924Z,69984
2019-04-21T07:20:27.880Z,68512
2019-04-21T07:20:59.589Z,69344
2019-04-21T07:21:33.676Z,70208
2019-04-21T07:22:02.890Z,70528
2019-04-21T07:22:36.734Z,69632
2019-04-21T07:23:01.575Z,70240
2019-04-21T07:23:36.680Z,71968
2019-04-21T07:24:04.997Z,72416
2019-04-21T07:24:36.666Z,72512
2019-04-21T07:25:08.525Z,72672
2019-04-21T07:25:38.292Z,73216
2019-04-21T07:26:02.549Z,73408
2019-04-21T07:26:36.156Z,73216
2019-04-21T07:27:08.649Z,70976
2019-04-21T07:27:41.089Z,71552
2019-04-21T07:28:09.753Z,73408
2019-04-21T07:28:47.510Z,73056
2019-04-21T07:29:13.962Z,72448
2019-04-21T07:30:12.677Z,73216
2019-04-21T07:30:43.442Z,74208
2019-04-21T07:31:17.247Z,74240
2019-04-21T07:31:53.998Z,74816
2019-04-21T07:32:13.849Z,75328
2019-04-21T07:32:53.085Z,75776
2019-04-21T07:33:41.002Z,75904
2019-04-21T07:34:07.273Z,74144
2019-04-21T07:34:26.747Z,74624
2019-04-21T07:34:57.221Z,76512
2019-04-21T07:35:24.721Z,76096
2019-04-21T07:35:55.286Z,74560
2019-04-21T07:36:37.767Z,72768
2019-04-21T07:37:29.692Z,69824
2019-04-21T07:37:57.537Z,71808
2019-04-21T07:38:26.720Z,75072
2019-04-21T07:39:00.010Z,77312
2019-04-21T07:39:26.925Z,77792
2019-04-21T07:39:58.510Z,76992
2019-04-21T07:40:27.197Z,76832
2019-04-21T07:40:56.337Z,78464
2019-04-21T07:41:24.175Z,78336
2019-04-21T07:41:59.113Z,78016
2019-04-21T07:42:27.934Z,77536
2019-04-21T07:42:57.369Z,78496
2019-04-21T07:43:29.644Z,78240
2019-04-21T07:43:58.827Z,78336
2019-04-21T07:44:28.400Z,79360
2019-04-21T07:44:57.478Z,81120
2019-04-21T07:45:29.956Z,82048
2019-04-21T07:45:57.915Z,80928
2019-04-21T07:46:28.610Z,80736
2019-04-21T07:47:03.010Z,79552
2019-04-21T07:47:39.314Z,79616
2019-04-21T07:48:08.073Z,80384
2019-04-21T07:48:42.803Z,82496
2019-04-21T07:49:12.301Z,81920
2019-04-21T07:49:46.071Z,81696
2019-04-21T07:50:14.216Z,81472
2019-04-21T07:50:37.997Z,81696
2019-04-21T07:51:16.799Z,82656
2019-04-21T07:51:45.067Z,82368
2019-04-21T07:52:17.936Z,83680
2019-04-21T07:52:48.368Z,83648
2019-04-21T07:53:20.978Z,83872
2019-04-21T07:53:49.228Z,83584
2019-04-21T07:54:22.794Z,83616
2019-04-21T07:54:56.646Z,83904
2019-04-21T07:55:29.991Z,84768
2019-04-21T07:56:07.139Z,84256
2019-04-21T07:56:36.043Z,85664
2019-04-21T07:57:15.078Z,86592
2019-04-21T07:57:41.434Z,86912
2019-04-21T07:58:20.779Z,86688
2019-04-21T07:58:57.158Z,85600
2019-04-21T07:59:26.819Z,84736
2019-04-21T08:00:05.722Z,85600
2019-04-21T08:00:28.734Z,87072
2019-04-21T08:00:56.091Z,88608
2019-04-21T08:02:00.639Z,87744
2019-04-21T08:02:29.029Z,86880
2019-04-21T08:03:00.018Z,86048
2019-04-21T08:03:33.138Z,87328
2019-04-21T08:03:59.073Z,87840
2019-04-21T08:05:12.847Z,88032
2019-04-21T08:05:37.289Z,87584
2019-04-21T08:06:01.968Z,85696
2019-04-21T08:06:40.146Z,84640
2019-04-21T08:07:04.184Z,86112
2019-04-21T08:07:47.308Z,86272
2019-04-21T08:08:20.598Z,87040
2019-04-21T08:08:33.219Z,86912
2019-04-21T08:09:06.988Z,86816